Time;durP1;ratioP1;P1;durP2;ratioP2;P2;SDS_P1;SDS_P2;PMS_P1;PMS_P2;Temp;Humidity;BMP_temperature;BMP_pressure;BME280_temperature;BME280_humidity;BME280_pressure;Samples;Min_cycle;Max_cycle;Signal;HPM_P1;HPM_P2
2023/04/12 00:02:21;;;;;;;24.90;13.10;;;;;;;2.22;80.11;99916.33;129833;1282;114801;-65
2023/04/12 00:05:26;;;;;;;27.30;13.90;;;;;;;2.20;80.11;99913.22;129422;1264;114687;-66
2023/04/12 00:08:31;;;;;;;;;;;;;;;2.18;80.20;99910.10;129732;1260;114781;-64
2023/04/12 00:11:34;;;;;;;21.30;12.40;;;;;;;2.13;80.35;99913.35;129630;1260;128356;-67
2023/04/12 00:14:36;;;;;;;24.80;13.70;;;;;;;2.11;80.28;99916.58;129844;1282;114754;-66
2023/04/12 00:17:39;;;;;;;26.70;14.50;;;;;;;2.09;80.32;99914.16;129846;1282;114807;-67
2023/04/12 00:20:42;;;;;;;25.60;13.00;;;;;;;2.06;80.52;99910.70;129854;1263;114813;-67
2023/04/12 00:23:48;;;;;;;27.30;14.40;;;;;;;2.04;80.28;99910.39;129805;1264;115176;-66
2023/04/12 00:26:50;;;;;;;29.40;15.40;;;;;;;2.01;80.26;99908.52;129446;1266;114912;-66
2023/04/12 00:29:52;;;;;;;28.70;15.50;;;;;;;1.98;80.32;99908.76;129711;1282;115452;-67
2023/04/12 00:32:54;;;;;;;30.00;16.00;;;;;;;1.95;80.39;99907.92;129751;1278;114817;-65
2023/04/12 00:35:56;;;;;;;31.20;16.20;;;;;;;1.92;80.37;99910.09;129735;1278;115211;-67
2023/04/12 00:38:58;;;;;;;28.70;16.10;;;;;;;1.90;80.67;99904.67;129734;1279;114781;-67
2023/04/12 00:42:04;;;;;;;27.90;14.80;;;;;;;1.88;80.35;99902.08;129742;1263;114738;-66
2023/04/12 00:45:08;;;;;;;30.00;14.70;;;;;;;1.87;80.50;99901.92;129735;1282;115249;-66
2023/04/12 00:48:10;;;;;;;27.30;14.50;;;;;;;1.85;80.72;99904.09;129756;1260;114730;-66
2023/04/12 00:51:12;;;;;;;25.40;13.00;;;;;;;1.84;80.72;99907.09;129731;1263;115051;-67
2023/04/12 00:54:16;;;;;;;23.80;13.00;;;;;;;1.81;80.69;99904.69;129444;1282;114705;-66
2023/04/12 00:57:19;;;;;;;21.80;12.50;;;;;;;1.79;80.70;99905.08;129713;1262;114711;-65
2023/04/12 01:00:22;;;;;;;20.00;12.50;;;;;;;1.78;80.89;99911.27;129786;1264;114826;-64
2023/04/12 01:03:26;;;;;;;19.90;11.20;;;;;;;1.76;80.98;99910.06;129787;1258;114757;-66
2023/04/12 01:06:54;;;;;;;21.70;11.00;;;;;;;1.74;81.08;99907.79;129516;1266;114897;-66
2023/04/12 01:10:35;;;;;;;18.70;10.10;;;;;;;1.73;80.88;99909.40;129733;1261;128858;-66
2023/04/12 01:14:26;;;;;;;18.80;10.90;;;;;;;1.72;81.44;99909.80;129444;1266;115296;-65
2023/04/12 01:17:30;;;;;;;19.20;10.20;;;;;;;1.70;80.92;99903.85;129377;1263;114930;-66
2023/04/12 01:20:43;;;;;;;21.70;11.30;;;;;;;1.69;81.19;99902.46;129228;1270;116281;-66
2023/04/12 01:23:49;;;;;;;24.70;11.70;;;;;;;1.69;81.35;99902.29;129184;1268;115235;-67
2023/04/12 01:26:53;;;;;;;16.90;9.50;;;;;;;1.68;81.36;99903.19;129302;1265;128501;-65
2023/04/12 01:29:56;;;;;;;19.70;9.60;;;;;;;1.67;81.18;99906.54;128839;1270;114944;-66
2023/04/12 01:33:05;;;;;;;21.00;10.60;;;;;;;1.66;81.18;99902.70;129147;1270;114979;-65
2023/04/12 01:36:12;;;;;;;20.70;10.40;;;;;;;1.65;81.60;99901.31;129376;1267;114819;-63
2023/04/12 01:39:15;;;;;;;19.90;10.70;;;;;;;1.63;81.15;99899.93;129296;1267;114943;-65
2023/04/12 01:42:20;;;;;;;21.50;10.40;;;;;;;1.63;81.29;99898.70;129297;1287;114902;-65
2023/04/12 01:45:21;;;;;;;;;;;;;;;1.61;81.69;99904.19;129074;1270;114900;-65
2023/04/12 01:48:24;;;;;;;21.70;11.10;;;;;;;1.59;81.46;99901.77;129336;1267;114957;-66
2023/04/12 01:51:46;;;;;;;16.60;9.50;;;;;;;1.58;81.45;99903.01;129731;1264;114758;-67
2023/04/12 01:54:50;;;;;;;17.70;10.30;;;;;;;1.60;81.82;99902.98;129660;1276;114735;-65
2023/04/12 01:57:52;;;;;;;16.00;8.90;;;;;;;1.64;82.09;99899.39;129751;1282;114732;-67
2023/04/12 02:00:55;;;;;;;21.50;9.90;;;;;;;1.68;82.06;99897.91;129684;1264;114848;-65
2023/04/12 02:03:59;;;;;;;16.50;9.20;;;;;;;1.73;82.00;99896.21;129689;1282;115291;-66
2023/04/12 02:07:02;;;;;;;16.60;9.60;;;;;;;1.76;81.96;99892.63;129799;1262;114756;-66
2023/04/12 02:10:12;;;;;;;18.40;8.30;;;;;;;1.79;82.12;99884.99;129747;1263;115314;-66
2023/04/12 02:13:16;;;;;;;14.70;9.00;;;;;;;1.81;81.96;99883.91;129760;1282;115401;-65
2023/04/12 02:16:19;;;;;;;12.10;8.90;;;;;;;1.82;81.55;99882.49;129456;1266;128656;-65
2023/04/12 02:19:21;;;;;;;14.80;9.10;;;;;;;1.81;81.71;99880.58;129880;1263;114794;-66
2023/04/12 02:22:23;;;;;;;15.90;9.30;;;;;;;1.79;81.60;99880.60;129784;1263;114727;-65
2023/04/12 02:25:26;;;;;;;17.60;8.40;;;;;;;1.77;81.59;99873.61;129490;1264;114808;-65
2023/04/12 02:28:28;;;;;;;13.10;8.80;;;;;;;1.75;81.68;99868.71;129797;1282;114784;-67
2023/04/12 02:31:30;;;;;;;14.80;8.60;;;;;;;1.73;81.31;99870.34;129863;1281;114775;-66
2023/04/12 02:34:35;;;;;;;13.90;8.30;;;;;;;1.71;81.62;99869.85;129785;1261;114785;-67
2023/04/12 02:37:37;;;;;;;;;;;;;;;1.69;81.59;99872.52;129729;1263;129134;-66
2023/04/12 02:40:42;;;;;;;15.90;9.00;;;;;;;1.67;81.45;99869.58;129753;1263;115194;-66
2023/04/12 02:43:45;;;;;;;15.00;9.20;;;;;;;1.66;81.49;99866.06;129784;1262;114737;-66
2023/04/12 02:46:47;;;;;;;18.80;9.50;;;;;;;1.65;81.58;99867.66;129783;1262;114714;-65
2023/04/12 02:49:48;;;;;;;15.20;8.50;;;;;;;1.64;81.78;99868.23;129793;1258;114722;-66
2023/04/12 02:52:50;;;;;;;18.40;8.60;;;;;;;1.63;81.62;99863.16;129760;1262;114907;-65
2023/04/12 02:55:52;;;;;;;15.60;8.50;;;;;;;1.60;81.69;99854.05;129699;1261;114862;-67
2023/04/12 02:58:54;;;;;;;17.40;9.30;;;;;;;1.56;81.51;99848.15;129717;1282;115324;-66
2023/04/12 03:01:56;;;;;;;14.40;9.10;;;;;;;1.51;81.43;99842.59;129563;1263;115188;-67
2023/04/12 03:04:58;;;;;;;18.60;9.40;;;;;;;1.47;81.07;99842.16;129759;1279;114768;-65
2023/04/12 03:08:00;;;;;;;18.00;8.90;;;;;;;1.42;81.31;99841.55;129772;1261;114737;-65
2023/04/12 03:11:02;;;;;;;13.20;7.80;;;;;;;1.37;81.13;99834.79;129699;1263;114743;-66
2023/04/12 03:14:04;;;;;;;20.70;8.70;;;;;;;1.31;81.15;99837.55;129700;1276;115176;-67
2023/04/12 03:17:06;;;;;;;12.60;8.30;;;;;;;1.26;80.99;99836.05;129778;1264;114689;-67
2023/04/12 03:20:08;;;;;;;13.20;8.20;;;;;;;1.20;80.88;99834.05;129671;1282;127516;-67
2023/04/12 03:23:10;;;;;;;15.40;9.20;;;;;;;1.16;81.28;99833.96;129341;1282;115465;-65
2023/04/12 03:26:13;;;;;;;14.70;7.90;;;;;;;1.11;80.85;99837.04;129730;1258;114721;-65
2023/04/12 03:29:15;;;;;;;17.60;8.60;;;;;;;1.05;81.03;99837.14;129471;1266;115122;-65
2023/04/12 03:32:17;;;;;;;15.60;8.80;;;;;;;1.00;80.93;99839.34;129735;1261;114813;-66
2023/04/12 03:35:19;;;;;;;20.50;9.60;;;;;;;0.96;81.03;99839.06;129484;1281;115178;-66
2023/04/12 03:38:22;;;;;;;18.90;9.90;;;;;;;0.90;80.90;99839.34;129716;1263;115428;-65
2023/04/12 03:41:24;;;;;;;23.30;9.80;;;;;;;0.86;81.18;99840.98;129713;1264;114756;-65
2023/04/12 03:44:26;;;;;;;20.40;10.50;;;;;;;0.81;80.91;99847.94;129744;1274;115198;-65
2023/04/12 03:47:28;;;;;;;18.70;10.70;;;;;;;0.77;81.03;99843.95;129780;1261;114730;-65
2023/04/12 03:50:30;;;;;;;22.40;11.20;;;;;;;0.72;81.22;99850.01;129726;1262;114804;-66
2023/04/12 03:53:33;;;;;;;16.10;10.50;;;;;;;0.71;81.38;99856.89;129769;1267;115339;-66
2023/04/12 03:56:37;;;;;;;19.10;10.80;;;;;;;0.69;81.40;99858.15;129780;1282;114691;-66
2023/04/12 03:59:39;;;;;;;24.30;11.70;;;;;;;0.68;81.78;99863.79;129696;1264;114733;-67
2023/04/12 04:02:41;;;;;;;20.00;10.60;;;;;;;0.68;81.59;99868.19;129782;1274;114811;-66
2023/04/12 04:05:43;;;;;;;17.70;11.00;;;;;;;0.67;81.92;99867.48;129716;1261;115259;-67
2023/04/12 04:08:45;;;;;;;17.60;11.40;;;;;;;0.69;81.85;99864.48;129683;1263;114803;-66
2023/04/12 04:11:48;;;;;;;18.30;10.40;;;;;;;0.70;81.95;99862.52;129762;1282;115386;-66
2023/04/12 04:14:51;;;;;;;20.70;10.60;;;;;;;0.73;82.00;99864.95;129624;1265;114808;-66
2023/04/12 04:17:53;;;;;;;20.10;11.60;;;;;;;0.73;82.14;99864.39;129783;1282;114707;-66
2023/04/12 04:20:55;;;;;;;23.10;12.50;;;;;;;0.76;81.97;99861.73;129860;1260;115627;-66
2023/04/12 04:24:01;;;;;;;20.10;10.90;;;;;;;0.77;82.20;99853.44;129529;1264;128201;-66
2023/04/12 04:27:03;;;;;;;20.20;12.30;;;;;;;0.79;82.08;99854.81;129569;1267;115480;-66
2023/04/12 04:30:06;;;;;;;18.80;11.10;;;;;;;0.80;82.16;99850.59;129795;1259;114809;-66
2023/04/12 04:33:08;;;;;;;19.10;12.00;;;;;;;0.82;82.06;99850.03;129697;1263;114815;-66
2023/04/12 04:36:12;;;;;;;20.10;11.20;;;;;;;0.84;82.13;99850.88;129817;1282;114746;-66
2023/04/12 04:39:14;;;;;;;20.30;12.40;;;;;;;0.87;82.16;99851.70;129513;1282;114824;-66
2023/04/12 04:42:16;;;;;;;19.60;12.70;;;;;;;0.91;82.27;99856.02;129523;1264;114798;-65
2023/04/12 04:45:25;;;;;;;22.70;12.30;;;;;;;0.95;82.33;99862.46;129739;1263;114791;-65
2023/04/12 04:48:28;;;;;;;15.90;10.90;;;;;;;1.00;82.14;99860.96;129719;1282;115230;-65
2023/04/12 04:51:31;;;;;;;16.40;10.70;;;;;;;1.04;82.20;99855.44;129683;1264;114903;-65
2023/04/12 04:54:33;;;;;;;24.80;11.50;;;;;;;1.11;82.53;99851.63;129648;1263;114802;-65
2023/04/12 04:57:35;;;;;;;24.20;11.90;;;;;;;1.18;82.45;99855.18;129665;1264;114669;-65
2023/04/12 05:00:37;;;;;;;16.90;11.60;;;;;;;1.28;82.65;99851.66;129699;1282;114791;-65
2023/04/12 05:03:39;;;;;;;21.20;11.80;;;;;;;1.40;82.87;99849.70;129394;1266;128314;-65
2023/04/12 05:06:41;;;;;;;16.00;10.70;;;;;;;1.53;83.27;99852.80;129641;1263;114750;-64
2023/04/12 05:09:43;;;;;;;22.30;11.60;;;;;;;1.67;83.29;99855.84;129752;1282;114738;-65
2023/04/12 05:12:45;;;;;;;23.50;10.70;;;;;;;1.85;83.36;99847.55;129429;1263;114740;-65
2023/04/12 05:15:48;;;;;;;21.70;11.60;;;;;;;2.05;83.59;99837.62;129491;1261;115255;-65
2023/04/12 05:18:50;;;;;;;23.00;12.20;;;;;;;2.25;83.79;99839.27;129621;1264;114845;-65
2023/04/12 05:21:52;;;;;;;25.60;13.40;;;;;;;2.46;83.59;99836.86;129729;1263;114724;-65
2023/04/12 05:24:57;;;;;;;22.10;11.40;;;;;;;2.62;83.55;99832.08;129612;1263;129064;-64
2023/04/12 05:28:00;;;;;;;23.10;12.40;;;;;;;2.76;83.35;99829.27;129387;1282;115183;-65
2023/04/12 05:31:02;;;;;;;20.30;12.80;;;;;;;2.89;83.46;99827.00;129642;1269;114727;-64
2023/04/12 05:34:04;;;;;;;23.60;11.60;;;;;;;3.01;83.30;99819.83;129706;1260;114738;-65
2023/04/12 05:37:06;;;;;;;19.30;13.00;;;;;;;3.12;83.14;99813.36;129409;1266;114881;-65
2023/04/12 05:40:09;;;;;;;23.30;13.30;;;;;;;3.23;83.17;99814.11;129603;1264;114779;-65
2023/04/12 05:43:12;;;;;;;25.60;13.80;;;;;;;3.34;83.04;99812.20;129464;1282;114804;-64
2023/04/12 05:46:14;;;;;;;29.70;16.70;;;;;;;3.45;82.92;99814.20;129654;1282;114798;-65
2023/04/12 05:49:16;;;;;;;23.90;14.00;;;;;;;3.58;83.01;99814.20;129678;1263;114727;-64
2023/04/12 05:52:18;;;;;;;22.80;13.10;;;;;;;3.71;82.95;99809.58;129609;1262;114743;-65
2023/04/12 05:55:20;;;;;;;26.00;11.60;;;;;;;3.84;83.02;99807.80;129776;1264;114775;-64
2023/04/12 05:58:22;;;;;;;25.20;12.80;;;;;;;3.97;82.85;99811.11;129708;1263;115150;-65
2023/04/12 06:01:29;;;;;;;20.60;11.00;;;;;;;4.10;82.82;99809.30;129672;1264;114737;-64
2023/04/12 06:04:32;;;;;;;19.00;12.50;;;;;;;4.28;83.02;99806.81;129776;1264;127718;-65
2023/04/12 06:07:34;;;;;;;21.30;12.00;;;;;;;4.55;83.37;99813.02;129716;1264;114737;-65
2023/04/12 06:10:36;;;;;;;19.20;11.10;;;;;;;4.88;83.29;99812.64;129798;1261;114762;-65
2023/04/12 06:13:38;;;;;;;15.70;10.90;;;;;;;5.27;83.54;99811.81;129490;1264;114824;-65
2023/04/12 06:16:41;;;;;;;19.60;11.40;;;;;;;5.65;82.94;99809.02;129810;1264;114809;-64
2023/04/12 06:19:43;;;;;;;20.10;10.80;;;;;;;5.98;82.66;99807.27;129713;1263;114696;-65
2023/04/12 06:22:45;;;;;;;20.40;10.40;;;;;;;6.38;82.61;99802.01;129836;1260;114699;-65
2023/04/12 06:25:48;;;;;;;16.80;9.60;;;;;;;6.84;82.37;99800.30;129649;1261;127714;-65
2023/04/12 06:28:51;;;;;;;13.30;9.30;;;;;;;7.30;81.98;99796.71;129885;1263;114723;-65
2023/04/12 06:31:53;;;;;;;17.00;8.50;;;;;;;7.76;81.35;99792.91;129773;1261;115407;-65
2023/04/12 06:34:55;;;;;;;13.30;8.10;;;;;;;8.18;80.83;99787.58;129797;1272;115252;-65
2023/04/12 06:37:57;;;;;;;12.40;7.80;;;;;;;8.58;80.17;99793.84;129770;1282;114823;-65
2023/04/12 06:40:59;;;;;;;12.60;8.90;;;;;;;8.94;79.45;99787.95;129758;1263;115191;-65
2023/04/12 06:44:01;;;;;;;15.10;7.40;;;;;;;9.31;79.01;99785.17;129750;1264;114765;-65
2023/04/12 06:47:03;;;;;;;10.90;7.10;;;;;;;9.64;78.28;99785.02;129598;1279;127858;-66
2023/04/12 06:50:09;;;;;;;12.40;7.10;;;;;;;9.92;77.66;99776.35;129797;1264;114752;-66
2023/04/12 06:53:14;;;;;;;9.80;5.80;;;;;;;10.21;77.31;99777.27;129847;1282;114857;-66
2023/04/12 06:56:16;;;;;;;13.40;5.70;;;;;;;10.50;76.76;99771.58;129777;1261;114859;-66
2023/04/12 06:59:18;;;;;;;12.00;6.80;;;;;;;10.72;75.90;99774.58;129762;1282;114650;-66
2023/04/12 07:02:20;;;;;;;11.30;7.60;;;;;;;11.01;75.87;99775.20;129752;1264;114865;-66
2023/04/12 07:05:22;;;;;;;10.70;5.80;;;;;;;11.31;75.52;99775.86;129518;1280;128178;-66
2023/04/12 07:08:25;;;;;;;10.80;5.80;;;;;;;11.59;75.00;99774.71;129652;1264;114733;-66
2023/04/12 07:11:27;;;;;;;8.60;5.90;;;;;;;11.85;73.90;99771.49;129865;1264;115404;-65
2023/04/12 07:14:30;;;;;;;9.40;6.10;;;;;;;12.00;73.21;99769.14;129391;1270;114848;-65
2023/04/12 07:17:32;;;;;;;11.50;5.70;;;;;;;12.09;72.56;99761.23;129825;1262;114722;-66
2023/04/12 07:20:34;;;;;;;9.10;5.20;;;;;;;12.31;72.53;99759.30;129723;1263;115211;-65
2023/04/12 07:23:36;;;;;;;8.10;4.90;;;;;;;12.59;72.19;99756.71;129769;1263;114794;-66
2023/04/12 07:26:38;;;;;;;15.30;8.10;;;;;;;12.79;71.38;99750.56;129500;1267;127702;-66
2023/04/12 07:29:40;;;;;;;7.70;5.10;;;;;;;13.04;71.21;99746.67;129679;1282;114858;-66
2023/04/12 07:32:43;;;;;;;10.60;5.30;;;;;;;13.34;70.61;99747.35;129709;1264;114730;-66
2023/04/12 07:35:45;;;;;;;8.50;5.60;;;;;;;13.61;69.84;99743.83;129480;1264;114878;-67
2023/04/12 07:38:48;;;;;;;8.40;5.30;;;;;;;13.88;69.38;99740.30;129703;1272;115371;-66
2023/04/12 07:41:50;;;;;;;8.70;6.50;;;;;;;14.15;68.63;99733.67;129741;1275;116308;-66
2023/04/12 07:44:52;;;;;;;8.70;5.10;;;;;;;14.41;68.12;99728.00;129784;1282;115371;-67
2023/04/12 07:47:54;;;;;;;6.80;4.40;;;;;;;14.36;67.67;99724.45;129734;1264;128521;-67
2023/04/12 07:50:57;;;;;;;6.40;3.60;;;;;;;14.58;67.85;99723.85;129668;1261;114746;-66
2023/04/12 07:53:59;;;;;;;4.90;3.50;;;;;;;15.11;67.55;99725.25;129749;1264;114700;-66
2023/04/12 07:57:02;;;;;;;9.30;3.70;;;;;;;15.53;66.73;99719.44;129751;1282;114742;-67
2023/04/12 08:00:08;;;;;;;6.40;3.40;;;;;;;15.87;65.64;99716.73;129688;1263;114727;-65
2023/04/12 08:03:12;;;;;;;4.30;2.90;;;;;;;16.39;65.75;99710.75;129421;1282;114960;-65
2023/04/12 08:06:14;;;;;;;4.10;2.90;;;;;;;16.99;65.19;99707.64;129730;1264;128887;-66
2023/04/12 08:09:16;;;;;;;8.00;2.80;;;;;;;17.47;64.37;99708.09;129722;1264;114813;-65
2023/04/12 08:12:20;;;;;;;5.50;3.80;;;;;;;17.61;63.13;99704.81;129737;1263;115330;-65
2023/04/12 08:15:22;;;;;;;6.40;3.60;;;;;;;17.41;62.01;99702.80;129668;1263;114724;-68
2023/04/12 08:18:24;;;;;;;6.10;3.40;;;;;;;17.11;61.88;99702.86;129679;1263;114689;-67
2023/04/12 08:21:26;;;;;;;7.50;4.00;;;;;;;16.98;61.72;99702.51;129752;1282;114778;-67
2023/04/12 08:24:28;;;;;;;9.40;4.00;;;;;;;16.79;61.21;99702.67;129496;1268;114890;-67
2023/04/12 08:27:31;;;;;;;5.90;3.10;;;;;;;16.93;61.09;99699.90;129705;1272;114742;-67
2023/04/12 08:30:34;;;;;;;6.40;3.40;;;;;;;17.04;60.05;99698.23;129660;1263;114705;-65
2023/04/12 08:33:36;;;;;;;4.50;3.10;;;;;;;16.83;59.46;99695.34;129642;1261;114954;-67
2023/04/12 08:36:38;;;;;;;5.40;3.20;;;;;;;16.68;59.54;99695.34;129670;1282;114791;-66
2023/04/12 08:39:40;;;;;;;5.40;2.90;;;;;;;16.45;58.50;99696.14;129657;1264;116440;-67
2023/04/12 08:42:43;;;;;;;5.10;3.20;;;;;;;16.10;58.25;99691.29;129771;1282;114715;-66
2023/04/12 08:45:45;;;;;;;5.90;3.10;;;;;;;15.76;58.09;99684.33;129430;1266;115206;-65
2023/04/12 08:48:49;;;;;;;3.10;2.80;;;;;;;15.45;57.93;99681.96;129708;1271;114875;-66
2023/04/12 08:51:53;;;;;;;5.70;2.70;;;;;;;15.17;57.58;99684.52;129804;1271;114748;-66
2023/04/12 08:54:55;;;;;;;3.00;2.40;;;;;;;14.94;57.85;99687.34;129780;1266;114830;-66
2023/04/12 08:57:57;;;;;;;5.80;2.60;;;;;;;14.83;58.00;99687.63;129676;1263;114700;-64
2023/04/12 09:01:00;;;;;;;7.40;3.40;;;;;;;14.75;58.29;99682.51;129737;1260;114720;-66
2023/04/12 09:04:05;;;;;;;5.90;2.40;;;;;;;14.68;57.70;99681.61;129755;1274;114811;-65
2023/04/12 09:07:07;;;;;;;;;;;;;;;14.52;57.11;99681.20;129602;1282;127870;-66
2023/04/12 09:10:09;;;;;;;6.40;2.60;;;;;;;14.29;56.87;99677.13;129645;1282;114733;-66
2023/04/12 09:13:11;;;;;;;5.20;3.60;;;;;;;14.09;56.85;99674.84;129871;1282;114736;-66
2023/04/12 09:16:14;;;;;;;8.10;3.30;;;;;;;13.97;57.27;99670.71;129543;1263;114865;-66
2023/04/12 09:19:31;;;;;;;5.70;3.70;;;;;;;14.00;57.52;99670.00;129707;1268;114703;-65
2023/04/12 09:22:38;;;;;;;8.10;4.70;;;;;;;14.00;57.23;99662.95;129707;1264;114780;-66
2023/04/12 09:25:44;;;;;;;9.80;4.70;;;;;;;14.04;57.22;99660.28;129805;1271;127824;-66
2023/04/12 09:28:46;;;;;;;7.20;4.50;;;;;;;14.24;57.16;99653.14;129583;1282;115195;-66
2023/04/12 09:32:14;;;;;;;4.30;3.00;;;;;;;14.49;57.76;99650.30;129703;1263;114974;-66
2023/04/12 09:35:17;;;;;;;7.30;3.00;;;;;;;14.56;56.43;99646.70;129736;1264;114767;-66
2023/04/12 09:38:19;;;;;;;7.30;2.80;;;;;;;14.54;56.47;99646.00;129648;1282;114829;-66
2023/04/12 09:41:21;;;;;;;7.80;2.90;;;;;;;14.56;56.34;99643.65;129732;1282;114765;-66
2023/04/12 09:44:30;;;;;;;6.00;3.00;;;;;;;14.56;56.16;99643.46;129789;1264;115163;-67
2023/04/12 09:47:39;;;;;;;8.40;2.90;;;;;;;14.61;56.15;99637.54;129711;1271;115256;-66
2023/04/12 09:50:41;;;;;;;3.60;2.20;;;;;;;14.59;55.84;99636.98;129738;1264;114852;-66
2023/04/12 09:53:45;;;;;;;7.90;2.60;;;;;;;14.66;56.22;99633.56;129790;1282;115124;-66
2023/04/12 09:56:48;;;;;;;10.80;4.00;;;;;;;14.76;56.14;99633.73;129728;1264;114779;-66
2023/04/12 09:59:52;;;;;;;5.50;2.70;;;;;;;14.80;55.74;99626.22;129733;1260;114766;-66
2023/04/12 10:02:55;;;;;;;5.10;2.60;;;;;;;14.78;55.46;99622.98;129408;1263;114706;-66
2023/04/12 10:05:57;;;;;;;4.10;2.80;;;;;;;14.72;55.27;99618.19;129821;1271;114742;-66
2023/04/12 10:09:03;;;;;;;4.90;2.00;;;;;;;14.63;55.22;99609.73;129761;1264;114871;-66
2023/04/12 10:12:06;;;;;;;5.40;2.70;;;;;;;14.54;54.85;99601.63;129730;1282;114721;-67
2023/04/12 10:15:14;;;;;;;5.80;2.00;;;;;;;14.51;54.99;99599.84;129762;1264;128016;-66
2023/04/12 10:18:17;;;;;;;4.60;2.20;;;;;;;14.53;55.04;99596.60;129725;1282;114766;-63
2023/04/12 10:21:20;;;;;;;5.40;2.00;;;;;;;14.46;54.32;99589.29;129787;1271;115179;-65
2023/04/12 10:24:23;;;;;;;3.80;2.00;;;;;;;14.32;54.35;99586.95;129767;1282;115404;-65
2023/04/12 10:27:26;;;;;;;4.40;2.00;;;;;;;14.22;54.34;99586.62;129789;1261;114727;-65
2023/04/12 10:30:29;;;;;;;5.80;2.00;;;;;;;14.23;54.40;99581.73;129684;1268;114733;-66
2023/04/12 10:33:31;;;;;;;8.60;2.30;;;;;;;14.30;54.05;99581.71;129736;1264;114771;-65
2023/04/12 10:36:53;;;;;;;6.40;1.80;;;;;;;14.28;53.49;99580.23;129756;1260;114730;-65
2023/04/12 10:39:55;;;;;;;3.90;1.70;;;;;;;14.22;53.47;99577.46;129702;1263;114716;-65
2023/04/12 10:43:22;;;;;;;8.20;2.50;;;;;;;14.23;53.67;99577.39;129694;1263;115261;-65
2023/04/12 10:46:36;;;;;;;4.30;2.40;;;;;;;14.28;53.65;99575.91;129494;1267;115031;-65
2023/04/12 10:49:39;;;;;;;5.30;2.50;;;;;;;14.40;52.97;99567.84;129703;1282;127833;-65
2023/04/12 10:52:41;;;;;;;5.10;2.60;;;;;;;14.45;53.02;99563.48;129711;1271;115182;-66
2023/04/12 10:55:44;;;;;;;6.10;2.70;;;;;;;14.47;53.57;99558.64;129672;1264;114787;-65
2023/04/12 10:58:49;;;;;;;9.50;2.20;;;;;;;14.53;53.65;99557.11;129755;1272;114740;-65
2023/04/12 11:02:03;;;;;;;5.20;2.30;;;;;;;14.54;53.43;99551.84;129765;1272;114791;-66
2023/04/12 11:05:10;;;;;;;7.70;2.40;;;;;;;14.49;53.22;99543.76;129745;1260;114807;-66
2023/04/12 11:08:12;;;;;;;4.50;2.30;;;;;;;14.42;52.47;99536.58;129670;1263;128623;-66
2023/04/12 11:11:19;;;;;;;5.90;2.20;;;;;;;14.22;52.63;99532.35;129779;1267;115264;-65
2023/04/12 11:14:45;;;;;;;5.80;2.20;;;;;;;14.23;53.49;99528.50;129790;1271;114823;-66
2023/04/12 11:17:55;;;;;;;7.10;2.20;;;;;;;14.26;52.89;99521.48;129781;1261;114828;-65
2023/04/12 11:20:57;;;;;;;4.00;2.10;;;;;;;14.22;52.65;99517.80;129680;1273;114703;-67
2023/04/12 11:23:59;;;;;;;5.80;2.20;;;;;;;14.15;52.55;99516.58;129662;1264;114897;-66
2023/04/12 11:27:02;;;;;;;2.90;1.70;;;;;;;14.08;52.70;99513.73;129738;1264;114813;-65
2023/04/12 11:30:05;;;;;;;5.20;2.00;;;;;;;14.02;52.13;99505.34;129518;1267;114717;-65
2023/04/12 11:33:07;;;;;;;4.80;2.00;;;;;;;13.96;52.12;99504.52;129377;1264;115098;-65
2023/04/12 11:36:11;;;;;;;2.70;1.50;;;;;;;13.87;51.71;99500.18;129756;1262;114731;-66
2023/04/12 11:39:14;;;;;;;5.60;1.80;;;;;;;13.71;51.97;99495.30;129707;1261;114718;-65
2023/04/12 11:42:18;;;;;;;3.70;1.70;;;;;;;13.56;51.50;99489.10;129684;1281;114737;-66
2023/04/12 11:45:20;;;;;;;3.40;1.90;;;;;;;13.44;51.59;99491.06;129719;1282;114769;-66
2023/04/12 11:48:24;;;;;;;6.40;2.00;;;;;;;13.35;50.86;99490.39;129635;1264;114898;-65
2023/04/12 11:51:29;;;;;;;3.00;1.40;;;;;;;13.30;50.53;99488.98;129561;1276;114788;-67
2023/04/12 11:54:33;;;;;;;2.80;1.50;;;;;;;13.23;50.53;99483.25;129378;1266;114903;-65
2023/04/12 11:57:35;;;;;;;2.00;1.70;;;;;;;13.17;50.15;99478.10;129382;1264;128027;-66
2023/04/12 12:00:37;;;;;;;4.30;1.90;;;;;;;13.10;50.47;99471.98;129549;1264;114766;-66
2023/04/12 12:03:39;;;;;;;3.20;1.80;;;;;;;13.07;51.06;99468.98;129522;1263;115216;-64
2023/04/12 12:06:41;;;;;;;3.20;2.20;;;;;;;13.08;51.81;99458.68;129651;1260;114724;-66
2023/04/12 12:09:45;;;;;;;4.60;1.90;;;;;;;13.10;52.02;99451.92;129594;1271;114826;-67
2023/04/12 12:12:50;;;;;;;2.60;1.50;;;;;;;13.12;51.62;99446.05;129621;1276;114864;-66
2023/04/12 12:15:53;;;;;;;3.20;1.70;;;;;;;13.02;50.83;99447.45;129585;1267;128799;-67
2023/04/12 12:18:56;;;;;;;5.50;2.20;;;;;;;12.89;50.88;99439.48;129586;1280;114732;-67
2023/04/12 12:22:05;;;;;;;3.00;1.70;;;;;;;12.79;50.97;99431.04;129587;1271;114858;-66
2023/04/12 12:25:07;;;;;;;4.50;1.50;;;;;;;12.75;50.98;99424.30;129788;1282;114852;-66
2023/04/12 12:28:12;;;;;;;2.20;1.40;;;;;;;12.74;50.75;99422.80;129669;1282;114711;-66
2023/04/12 12:31:18;;;;;;;4.60;2.00;;;;;;;12.74;50.90;99417.09;129673;1263;128868;-65
2023/04/12 12:34:22;;;;;;;2.80;1.90;;;;;;;12.73;50.58;99412.10;129871;1271;114982;-65
2023/04/12 12:37:26;;;;;;;6.00;2.10;;;;;;;12.69;50.45;99415.11;129746;1264;115221;-65
2023/04/12 12:40:32;;;;;;;5.40;2.30;;;;;;;12.63;50.65;99413.90;129704;1263;114724;-67
2023/04/12 12:43:34;;;;;;;3.90;1.80;;;;;;;12.56;50.75;99403.87;129342;1282;115082;-65
2023/04/12 12:46:37;;;;;;;3.10;2.10;;;;;;;12.53;50.48;99399.59;129339;1282;114715;-65
2023/04/12 12:49:39;;;;;;;4.70;2.10;;;;;;;12.51;50.78;99396.84;129803;1264;114791;-62
2023/04/12 12:52:41;;;;;;;4.10;2.10;;;;;;;12.57;51.14;99399.49;129416;1282;115228;-64
2023/04/12 12:55:44;;;;;;;5.50;2.00;;;;;;;12.59;50.64;99394.67;129689;1276;115516;-63
2023/04/12 12:58:46;;;;;;;4.70;2.20;;;;;;;12.56;50.55;99389.52;129773;1275;114765;-66
2023/04/12 13:01:48;;;;;;;4.40;1.70;;;;;;;12.58;50.63;99380.95;129842;1263;116397;-65
2023/04/12 13:04:50;;;;;;;6.60;2.00;;;;;;;12.64;50.18;99383.93;129704;1264;114811;-64
2023/04/12 13:07:55;;;;;;;5.70;2.20;;;;;;;12.68;50.46;99380.23;129713;1264;128858;-63
2023/04/12 13:10:57;;;;;;;3.60;2.20;;;;;;;12.68;50.70;99377.77;129729;1258;114746;-68
2023/04/12 13:13:59;;;;;;;3.20;1.40;;;;;;;12.71;51.00;99370.13;129983;1263;115249;-68
2023/04/12 13:17:01;;;;;;;5.00;2.40;;;;;;;12.82;50.85;99365.08;129779;1264;114807;-70
2023/04/12 13:20:03;;;;;;;2.40;1.90;;;;;;;13.00;50.75;99363.22;129713;1282;116359;-68
2023/04/12 13:23:06;;;;;;;3.60;2.10;;;;;;;13.14;50.52;99355.31;129524;1264;297032;-67
2023/04/12 13:26:08;;;;;;;6.20;1.90;;;;;;;13.21;50.09;99349.79;129710;1280;114771;-68
2023/04/12 13:29:10;;;;;;;4.80;2.00;;;;;;;13.28;50.02;99348.36;129761;1261;129016;-68
2023/04/12 13:32:13;;;;;;;10.50;2.50;;;;;;;13.32;49.90;99345.73;129750;1264;114726;-68
2023/04/12 13:35:15;;;;;;;4.40;2.20;;;;;;;13.34;49.87;99336.12;129742;1262;114737;-68
2023/04/12 13:38:17;;;;;;;2.50;1.80;;;;;;;13.34;49.55;99331.80;129785;1261;114819;-69
2023/04/12 13:41:19;;;;;;;4.70;2.10;;;;;;;13.27;49.20;99322.66;129640;1264;114888;-67
2023/04/12 13:44:21;;;;;;;2.40;1.40;;;;;;;13.22;48.88;99316.23;129766;1282;115160;-69
2023/04/12 13:47:23;;;;;;;3.60;1.80;;;;;;;13.16;49.13;99312.16;129716;1282;114784;-67
2023/04/12 13:50:26;;;;;;;3.60;2.30;;;;;;;13.15;49.49;99306.46;129366;1264;129137;-68
2023/04/12 13:53:29;;;;;;;3.30;2.20;;;;;;;13.12;49.40;99304.21;129332;1264;114817;-67
2023/04/12 13:56:32;;;;;;;3.10;2.00;;;;;;;13.08;48.73;99302.75;129718;1262;114750;-68
2023/04/12 13:59:34;;;;;;;9.40;5.80;;;;;;;13.02;48.61;99295.67;129703;1282;115346;-67
2023/04/12 14:02:37;;;;;;;5.90;2.10;;;;;;;12.98;48.72;99288.98;129527;1282;114729;-68